Time;durP1;ratioP1;P1;durP2;ratioP2;P2;SDS_P1;SDS_P2;PMS_P1;PMS_P2;Temp;Humidity;BMP_temperature;BMP_pressure;BME280_temperature;BME280_humidity;BME280_pressure;Samples;Min_cycle;Max_cycle;Signal;HPM_P1;HPM_P2
2021/06/12 00:01:46;;;;;;;12.03;10.90;;;21.80;1.00;;;;;;5046276;28;20507;-78
2021/06/12 00:04:12;;;;;;;13.10;11.73;;;21.70;1.00;;;;;;5037184;28;20481;-78
2021/06/12 00:06:38;;;;;;;12.87;11.00;;;21.70;1.00;;;;;;5039646;28;20435;-79
2021/06/12 00:09:06;;;;;;;14.00;12.33;;;21.70;1.00;;;;;;5044375;28;20593;-78
2021/06/12 00:11:32;;;;;;;12.63;10.77;;;21.70;1.00;;;;;;5040678;28;21566;-78
2021/06/12 00:13:58;;;;;;;13.37;11.43;;;21.70;1.00;;;;;;5041866;28;20519;-79
2021/06/12 00:16:26;;;;;;;11.80;10.60;;;21.70;1.00;;;;;;5045077;28;20457;-78
2021/06/12 00:18:52;;;;;;;11.50;10.40;;;21.60;1.00;;;;;;5043889;28;20576;-79
2021/06/12 00:21:18;;;;;;;13.37;11.83;;;21.60;1.00;;;;;;5044899;28;20450;-79
2021/06/12 00:23:44;;;;;;;12.77;11.57;;;21.50;1.00;;;;;;5055653;28;20545;-78
2021/06/12 00:26:10;;;;;;;13.10;11.70;;;21.50;1.00;;;;;;5043489;28;20504;-79
2021/06/12 00:28:37;;;;;;;12.03;10.30;;;21.50;1.00;;;;;;5059620;28;20529;-79
2021/06/12 00:31:04;;;;;;;10.30;9.33;;;21.50;1.00;;;;;;5038066;28;21287;-78
2021/06/12 00:33:31;;;;;;;11.10;10.10;;;21.50;1.00;;;;;;5045677;28;20462;-78
2021/06/12 00:35:59;;;;;;;11.93;10.87;;;21.50;1.00;;;;;;5041958;28;20441;-79
2021/06/12 00:38:25;;;;;;;11.33;10.13;;;21.50;1.00;;;;;;5041416;28;20458;-79
2021/06/12 00:40:51;;;;;;;10.37;9.30;;;21.50;1.00;;;;;;5039828;28;21401;-78
2021/06/12 00:43:18;;;;;;;11.20;10.20;;;21.50;1.00;;;;;;5063683;28;20430;-77
2021/06/12 00:45:46;;;;;;;11.53;10.53;;;21.40;1.00;;;;;;5046294;28;20537;-77
2021/06/12 00:48:13;;;;;;;11.60;10.50;;;21.40;1.00;;;;;;5049921;28;20562;-77
2021/06/12 00:50:41;;;;;;;12.93;10.00;;;21.40;1.00;;;;;;5049382;28;21647;-77
2021/06/12 00:53:08;;;;;;;12.13;10.70;;;21.40;1.00;;;;;;5035726;28;21473;-77
2021/06/12 00:55:35;;;;;;;10.87;10.07;;;21.40;1.00;;;;;;5042713;28;20871;-77
2021/06/12 00:58:01;;;;;;;10.97;10.00;;;21.40;1.00;;;;;;5043980;28;20453;-77
2021/06/12 01:00:28;;;;;;;11.93;10.83;;;21.40;1.00;;;;;;5033946;28;20886;-78
2021/06/12 01:02:54;;;;;;;12.23;11.23;;;21.50;1.00;;;;;;5038150;28;20493;-78
2021/06/12 01:05:21;;;;;;;11.87;10.67;;;21.50;1.00;;;;;;5041499;28;20473;-76
2021/06/12 01:07:49;;;;;;;12.63;11.53;;;21.50;1.00;;;;;;5047760;28;20458;-78
2021/06/12 01:10:17;;;;;;;12.27;11.17;;;21.50;1.00;;;;;;5039517;28;20566;-78
2021/06/12 01:12:53;;;;;;;13.47;12.10;;;21.50;1.00;;;;;;5041455;28;20447;-77
2021/06/12 01:15:20;;;;;;;10.80;9.90;;;21.50;1.00;;;;;;5035869;28;20854;-78
2021/06/12 01:17:51;;;;;;;12.83;11.50;;;21.50;1.00;;;;;;5042171;28;20550;-77
2021/06/12 01:20:44;;;;;;;11.47;10.47;;;21.50;1.00;;;;;;5041851;28;20444;-78
2021/06/12 01:23:43;;;;;;;11.70;10.50;;;21.50;1.00;;;;;;5045770;28;20455;-79
2021/06/12 01:26:24;;;;;;;11.27;10.20;;;21.50;1.00;;;;;;5018735;28;21012;-79
2021/06/12 01:29:09;;;;;;;12.10;10.80;;;21.50;1.00;;;;;;5045052;28;20459;-78
2021/06/12 01:31:39;;;;;;;12.13;10.93;;;21.50;1.00;;;;;;5045939;28;20449;-78
2021/06/12 01:34:06;;;;;;;10.43;9.43;;;21.60;1.00;;;;;;5043373;28;21423;-79
2021/06/12 01:36:32;;;;;;;10.47;9.17;;;21.70;1.00;;;;;;5040936;28;21334;-79
2021/06/12 01:39:00;;;;;;;11.33;10.30;;;21.80;1.00;;;;;;5041209;28;20454;-79
2021/06/12 01:41:29;;;;;;;10.60;9.70;;;21.90;1.00;;;;;;5043598;28;20442;-78
2021/06/12 01:43:56;;;;;;;10.40;9.33;;;21.90;1.00;;;;;;5039828;28;20442;-79
2021/06/12 01:46:24;;;;;;;12.30;10.00;;;21.90;1.00;;;;;;5042983;28;20446;-78
2021/06/12 01:48:52;;;;;;;10.43;9.53;;;22.00;1.00;;;;;;5033077;28;20593;-78
2021/06/12 01:51:19;;;;;;;12.30;10.00;;;21.90;1.00;;;;;;5044048;28;20520;-78
2021/06/12 01:53:47;;;;;;;10.77;9.80;;;21.90;1.00;;;;;;5047726;28;21613;-78
2021/06/12 01:56:13;;;;;;;10.50;9.70;;;21.90;1.00;;;;;;5050025;28;20435;-78
2021/06/12 01:58:44;;;;;;;11.73;10.43;;;21.90;1.00;;;;;;5047654;28;21313;-79
2021/06/12 02:01:13;;;;;;;10.47;9.50;;;21.90;1.00;;;;;;5039741;28;20554;-79
2021/06/12 02:03:41;;;;;;;9.60;8.80;;;21.90;1.00;;;;;;5039778;28;20594;-78
2021/06/12 02:06:11;;;;;;;10.00;9.10;;;22.00;1.00;;;;;;5042481;28;20481;-79
2021/06/12 02:08:40;;;;;;;10.13;8.57;;;22.00;1.00;;;;;;5043681;28;21243;-78
2021/06/12 02:11:07;;;;;;;10.30;9.47;;;21.90;1.00;;;;;;5044956;28;20460;-79
2021/06/12 02:13:36;;;;;;;9.53;8.83;;;21.90;1.00;;;;;;5057898;28;20468;-79
2021/06/12 02:16:04;;;;;;;9.83;8.67;;;21.90;1.00;;;;;;5049863;28;20421;-78
2021/06/12 02:18:30;;;;;;;9.47;8.57;;;21.90;1.00;;;;;;5040834;28;20462;-77
2021/06/12 02:20:57;;;;;;;10.07;9.17;;;21.90;1.00;;;;;;5041135;28;20454;-78
2021/06/12 02:23:28;;;;;;;9.90;9.00;;;21.80;1.00;;;;;;5041997;28;20462;-78
2021/06/12 02:25:55;;;;;;;10.97;9.97;;;21.80;1.00;;;;;;5043282;28;20457;-78
2021/06/12 02:28:23;;;;;;;10.33;9.53;;;21.80;1.00;;;;;;5040581;28;20457;-78
2021/06/12 02:30:55;;;;;;;9.93;8.93;;;21.80;1.00;;;;;;5039964;28;20464;-77
2021/06/12 02:33:23;;;;;;;10.13;9.23;;;21.80;1.00;;;;;;5041052;28;20464;-77
2021/06/12 02:35:49;;;;;;;10.07;9.07;;;21.80;1.00;;;;;;5042182;28;20449;-77
2021/06/12 02:38:15;;;;;;;9.37;8.50;;;21.70;1.00;;;;;;5043856;28;20443;-76
2021/06/12 02:40:42;;;;;;;10.17;9.37;;;21.70;1.00;;;;;;5045968;28;20447;-77
2021/06/12 02:43:09;;;;;;;12.40;10.07;;;21.70;1.00;;;;;;5047601;28;20464;-78
2021/06/12 02:45:35;;;;;;;9.60;8.80;;;21.70;1.00;;;;;;5044573;28;20473;-78
2021/06/12 02:48:06;;;;;;;8.93;8.13;;;21.80;1.00;;;;;;5049930;28;20481;-78
2021/06/12 02:50:34;;;;;;;8.03;7.43;;;21.70;1.00;;;;;;5047129;28;20460;-78
2021/06/12 02:53:03;;;;;;;9.03;7.77;;;21.90;1.00;;;;;;5049832;28;20946;-78
2021/06/12 02:55:31;;;;;;;8.00;7.30;;;22.00;1.00;;;;;;5056161;28;20472;-77
2021/06/12 02:57:59;;;;;;;8.57;7.73;;;22.10;1.00;;;;;;5052473;28;20418;-76
2021/06/12 03:00:27;;;;;;;8.87;8.03;;;22.10;1.00;;;;;;5050210;28;20477;-77
2021/06/12 03:02:54;;;;;;;8.10;7.43;;;22.20;1.00;;;;;;5049589;28;20577;-77
2021/06/12 03:05:22;;;;;;;8.47;7.67;;;22.20;1.00;;;;;;5060395;28;20419;-77
2021/06/12 03:07:52;;;;;;;8.53;7.93;;;22.30;1.00;;;;;;5048574;28;20441;-78
2021/06/12 03:10:20;;;;;;;8.97;7.97;;;22.20;1.00;;;;;;5052291;28;20438;-77
2021/06/12 03:12:47;;;;;;;8.20;7.50;;;22.30;1.00;;;;;;5063278;28;20555;-76
2021/06/12 03:15:15;;;;;;;7.27;6.77;;;22.20;1.00;;;;;;5052048;28;20521;-77
2021/06/12 03:17:44;;;;;;;8.40;7.70;;;22.30;1.00;;;;;;5054071;28;20474;-77
2021/06/12 03:20:12;;;;;;;8.23;7.53;;;22.30;1.00;;;;;;5048396;28;20464;-77
2021/06/12 03:22:39;;;;;;;8.10;7.30;;;22.30;1.00;;;;;;5052836;28;20454;-77
2021/06/12 03:25:07;;;;;;;7.47;6.77;;;22.20;1.00;;;;;;5050966;28;20430;-78
2021/06/12 03:27:34;;;;;;;7.07;6.43;;;22.10;1.00;;;;;;5044177;28;20445;-77
2021/06/12 03:30:00;;;;;;;6.73;6.17;;;22.10;1.00;;;;;;5045787;28;20450;-78
2021/06/12 03:32:28;;;;;;;7.10;6.40;;;22.00;1.00;;;;;;5046245;28;20463;-78
2021/06/12 03:34:55;;;;;;;6.97;6.30;;;22.00;1.00;;;;;;5047695;28;20452;-78
2021/06/12 03:37:21;;;;;;;7.80;7.20;;;22.00;1.00;;;;;;5044127;28;21033;-78
2021/06/12 03:39:48;;;;;;;7.00;6.50;;;21.90;1.00;;;;;;5045325;28;20553;-77
2021/06/12 03:42:15;;;;;;;8.53;6.90;;;21.90;1.00;;;;;;5054084;28;20489;-77
2021/06/12 03:44:44;;;;;;;7.80;7.20;;;21.80;1.00;;;;;;5045495;28;20949;-77
2021/06/12 03:47:10;;;;;;;6.70;6.00;;;21.80;1.00;;;;;;5041997;28;20453;-78
2021/06/12 03:49:39;;;;;;;6.40;5.90;;;21.80;1.00;;;;;;5043462;28;20461;-77
2021/06/12 03:52:07;;;;;;;8.17;7.47;;;21.80;1.00;;;;;;5041530;28;21269;-78
2021/06/12 03:54:35;;;;;;;6.73;6.13;;;21.70;1.00;;;;;;5044404;28;20441;-77
2021/06/12 03:57:01;;;;;;;8.00;7.30;;;21.60;1.00;;;;;;5043445;28;20560;-78
2021/06/12 03:59:28;;;;;;;5.77;5.27;;;21.60;1.00;;;;;;5043811;28;20482;-78
2021/06/12 04:01:55;;;;;;;6.20;5.70;;;21.60;1.00;;;;;;5039621;28;21682;-78
2021/06/12 04:04:23;;;;;;;5.93;5.47;;;21.50;1.00;;;;;;5042963;28;20503;-79
2021/06/12 04:06:51;;;;;;;5.73;5.20;;;21.50;1.00;;;;;;5042378;28;21870;-77
2021/06/12 04:09:17;;;;;;;7.23;6.43;;;21.50;1.00;;;;;;5047751;28;20421;-77
2021/06/12 04:11:44;;;;;;;6.20;5.60;;;21.50;1.00;;;;;;5049663;28;20448;-78
2021/06/12 04:14:10;;;;;;;6.40;5.80;;;21.50;1.00;;;;;;5046964;28;20481;-77
2021/06/12 04:16:38;;;;;;;5.50;5.00;;;21.60;1.00;;;;;;5042994;28;20440;-78
2021/06/12 04:19:04;;;;;;;7.77;6.97;;;21.50;1.00;;;;;;5041582;28;20591;-78
2021/06/12 04:21:30;;;;;;;5.40;5.00;;;21.60;1.00;;;;;;5041287;28;20908;-80
2021/06/12 04:23:57;;;;;;;7.10;6.40;;;21.70;1.00;;;;;;5045411;28;20441;-77
2021/06/12 04:26:23;;;;;;;6.03;5.53;;;21.70;1.00;;;;;;5046299;28;23063;-78
2021/06/12 04:28:50;;;;;;;7.37;5.47;;;21.80;1.00;;;;;;5046619;28;20488;-77
2021/06/12 04:31:16;;;;;;;6.77;6.07;;;21.80;1.00;;;;;;5051439;28;20472;-77
2021/06/12 04:33:42;;;;;;;5.90;5.30;;;21.80;1.00;;;;;;5044054;28;21227;-78
2021/06/12 04:36:08;;;;;;;6.10;5.47;;;21.80;1.00;;;;;;5042873;28;20542;-78
2021/06/12 04:38:35;;;;;;;5.77;5.27;;;21.80;1.00;;;;;;5041764;28;20461;-78
2021/06/12 04:41:03;;;;;;;5.83;5.33;;;21.90;1.00;;;;;;5045080;28;20461;-77
2021/06/12 04:43:29;;;;;;;5.17;4.73;;;21.90;1.00;;;;;;5042315;28;20437;-78
2021/06/12 04:45:55;;;;;;;4.80;4.40;;;21.90;1.00;;;;;;5042689;28;20462;-77
2021/06/12 04:48:21;;;;;;;5.27;4.87;;;21.80;1.00;;;;;;5045478;28;20421;-77
2021/06/12 04:50:47;;;;;;;5.07;4.67;;;21.70;1.00;;;;;;5040988;28;20416;-77
2021/06/12 04:53:13;;;;;;;6.20;5.70;;;21.70;1.00;;;;;;5039470;28;20976;-77
2021/06/12 04:55:40;;;;;;;7.10;6.50;;;21.70;1.00;;;;;;5041718;28;20453;-77
2021/06/12 04:58:10;;;;;;;5.73;5.10;;;21.70;1.00;;;;;;5046965;28;20445;-77
2021/06/12 05:00:36;;;;;;;5.90;5.30;;;21.80;1.00;;;;;;5042250;28;20461;-77
2021/06/12 05:03:03;;;;;;;5.23;4.83;;;21.70;1.00;;;;;;5039742;28;20449;-77
2021/06/12 05:05:29;;;;;;;6.33;5.70;;;21.70;1.00;;;;;;5037896;28;20902;-77
2021/06/12 05:07:55;;;;;;;5.37;4.90;;;21.70;1.00;;;;;;5043300;28;20450;-77
2021/06/12 05:10:21;;;;;;;6.80;5.83;;;21.80;1.00;;;;;;5037745;28;20462;-76
2021/06/12 05:12:47;;;;;;;5.30;4.80;;;21.80;1.00;;;;;;5035995;28;21206;-76
2021/06/12 05:15:15;;;;;;;6.00;5.40;;;21.80;1.00;;;;;;5040963;28;21295;-76
2021/06/12 05:17:42;;;;;;;5.73;5.17;;;21.90;1.00;;;;;;5043139;28;20573;-77
2021/06/12 05:20:11;;;;;;;5.53;4.83;;;21.90;1.00;;;;;;5042005;28;20480;-78
2021/06/12 05:22:37;;;;;;;6.00;5.50;;;21.90;1.00;;;;;;5039339;28;20441;-78
2021/06/12 05:25:05;;;;;;;4.43;3.97;;;22.00;1.00;;;;;;5039980;28;20472;-78
2021/06/12 05:27:31;;;;;;;4.70;4.30;;;22.00;1.00;;;;;;5046457;28;20414;-77
2021/06/12 05:29:58;;;;;;;4.77;4.37;;;22.00;1.00;;;;;;5040751;28;20440;-77
2021/06/12 05:32:25;;;;;;;4.17;3.87;;;22.10;1.00;;;;;;5059379;28;20437;-78
2021/06/12 05:34:51;;;;;;;5.10;4.70;;;22.10;1.00;;;;;;5038755;28;20433;-78
2021/06/12 05:37:17;;;;;;;5.20;4.80;;;22.20;1.00;;;;;;5045772;28;20640;-77
2021/06/12 05:39:43;;;;;;;5.40;4.63;;;22.30;1.00;;;;;;5038530;28;20438;-78
2021/06/12 05:42:10;;;;;;;4.57;4.17;;;22.30;1.00;;;;;;5041875;28;20526;-78
2021/06/12 05:44:37;;;;;;;6.33;5.30;;;22.30;1.00;;;;;;5042491;28;20486;-77
2021/06/12 05:47:03;;;;;;;4.60;4.30;;;22.40;1.00;;;;;;5040577;28;20489;-77
2021/06/12 05:49:31;;;;;;;5.40;4.90;;;22.40;1.00;;;;;;5047991;28;21249;-78
2021/06/12 05:51:57;;;;;;;5.17;4.73;;;22.40;1.00;;;;;;5047108;28;20444;-77
2021/06/12 05:54:23;;;;;;;5.23;4.73;;;22.50;1.00;;;;;;5061974;28;20663;-78
2021/06/12 05:56:49;;;;;;;4.87;4.47;;;22.70;1.00;;;;;;5053611;28;20538;-77
2021/06/12 05:59:15;;;;;;;4.83;4.43;;;22.70;1.00;;;;;;5048154;28;20965;-77
2021/06/12 06:01:41;;;;;;;4.57;4.17;;;22.80;1.00;;;;;;5043611;28;20443;-78
2021/06/12 06:04:07;;;;;;;5.17;4.80;;;22.90;1.00;;;;;;5038156;28;20481;-77
2021/06/12 06:06:35;;;;;;;5.37;4.97;;;22.80;1.00;;;;;;5036388;28;20471;-78
2021/06/12 06:09:01;;;;;;;6.23;4.70;;;22.70;1.00;;;;;;5041880;28;20459;-78
2021/06/12 06:11:28;;;;;;;6.00;5.40;;;22.50;1.00;;;;;;5042366;28;20464;-78
2021/06/12 06:13:54;;;;;;;5.37;4.87;;;22.40;1.00;;;;;;5039260;28;20458;-78
2021/06/12 06:16:20;;;;;;;5.40;4.87;;;22.40;1.00;;;;;;5047226;28;20516;-77
2021/06/12 06:18:46;;;;;;;7.03;5.50;;;22.40;1.00;;;;;;5042469;28;20469;-77
2021/06/12 06:21:13;;;;;;;5.50;5.00;;;22.40;1.00;;;;;;5044833;28;20961;-78
2021/06/12 06:23:40;;;;;;;5.80;5.20;;;22.30;1.00;;;;;;5042288;28;20478;-77
2021/06/12 06:26:07;;;;;;;5.63;5.23;;;22.20;1.00;;;;;;5045302;28;20422;-78
2021/06/12 06:28:33;;;;;;;8.10;5.73;;;22.10;1.00;;;;;;5047766;28;20554;-79
2021/06/12 06:30:59;;;;;;;6.53;5.93;;;22.10;1.00;;;;;;5052237;28;20984;-78
2021/06/12 06:33:25;;;;;;;8.20;6.47;;;22.10;1.00;;;;;;5054762;28;20422;-79
2021/06/12 06:35:52;;;;;;;4.97;4.60;;;22.20;1.00;;;;;;5046604;28;20410;-79
2021/06/12 06:38:19;;;;;;;5.50;5.03;;;22.30;1.00;;;;;;5045717;28;21055;-78
2021/06/12 06:40:48;;;;;;;10.10;5.30;;;22.50;1.00;;;;;;5044977;28;21182;-78
2021/06/12 06:43:14;;;;;;;6.73;6.03;;;22.50;1.00;;;;;;5043698;28;20987;-78
2021/06/12 06:45:40;;;;;;;6.20;5.60;;;22.40;1.00;;;;;;5041355;28;20805;-78
2021/06/12 06:48:08;;;;;;;6.00;5.30;;;22.50;1.00;;;;;;5038605;28;20484;-79
2021/06/12 06:50:34;;;;;;;5.67;4.83;;;22.50;1.00;;;;;;5044798;28;21111;-79
2021/06/12 06:53:00;;;;;;;6.13;5.53;;;22.50;1.00;;;;;;5044876;28;20504;-78
2021/06/12 06:55:27;;;;;;;6.60;6.07;;;22.50;1.00;;;;;;5044605;28;20550;-78
2021/06/12 06:57:55;;;;;;;6.60;6.00;;;22.40;1.00;;;;;;5041974;28;20445;-78
2021/06/12 07:00:23;;;;;;;6.20;5.60;;;22.40;1.00;;;;;;5048404;28;20544;-77
2021/06/12 07:02:50;;;;;;;6.43;5.90;;;22.50;1.00;;;;;;5041833;28;20520;-78
2021/06/12 07:05:16;;;;;;;7.33;6.63;;;22.50;1.00;;;;;;5040723;28;20466;-78
2021/06/12 07:07:42;;;;;;;6.60;6.00;;;22.60;1.00;;;;;;5048623;28;20450;-78
2021/06/12 07:10:10;;;;;;;7.00;6.40;;;22.70;1.00;;;;;;5038292;28;20525;-79
2021/06/12 07:12:36;;;;;;;7.07;6.37;;;22.80;1.00;;;;;;5042089;28;20450;-78
2021/06/12 07:15:05;;;;;;;6.83;6.23;;;22.80;1.00;;;;;;5047273;28;20600;-78
2021/06/12 07:17:31;;;;;;;6.80;6.20;;;22.90;1.00;;;;;;5040577;28;21138;-78
2021/06/12 07:19:57;;;;;;;6.07;5.57;;;22.90;1.00;;;;;;5041703;28;21369;-79
2021/06/12 07:22:23;;;;;;;7.33;6.53;;;22.90;1.00;;;;;;5040567;28;20462;-79
2021/06/12 07:24:49;;;;;;;7.20;6.60;;;22.90;1.00;;;;;;5045804;28;20503;-79
2021/06/12 07:27:16;;;;;;;7.10;6.23;;;22.80;1.00;;;;;;5048344;28;20544;-79
2021/06/12 07:29:42;;;;;;;7.87;7.00;;;22.70;1.00;;;;;;5046212;28;20882;-76
2021/06/12 07:32:09;;;;;;;6.77;5.90;;;22.80;1.00;;;;;;5045605;28;20569;-77
2021/06/12 07:34:35;;;;;;;6.97;6.30;;;22.80;1.00;;;;;;5042533;28;20450;-78
2021/06/12 07:37:02;;;;;;;7.80;7.10;;;22.90;1.00;;;;;;5048417;28;20551;-78
2021/06/12 07:39:29;;;;;;;8.70;7.90;;;22.90;1.00;;;;;;5045147;28;20530;-77
2021/06/12 07:41:55;;;;;;;8.43;7.63;;;22.80;1.00;;;;;;5048368;28;20453;-78
2021/06/12 07:44:22;;;;;;;7.73;6.97;;;22.70;1.00;;;;;;5041989;28;20540;-78
2021/06/12 07:46:48;;;;;;;8.57;7.73;;;22.60;1.00;;;;;;5042700;28;20465;-79
2021/06/12 07:49:16;;;;;;;9.47;8.57;;;22.60;1.00;;;;;;5045647;28;21010;-79
2021/06/12 07:51:43;;;;;;;8.20;7.60;;;22.60;1.00;;;;;;5046426;28;20441;-79
2021/06/12 07:54:09;;;;;;;10.00;7.70;;;22.50;1.00;;;;;;5044465;28;20537;-79
2021/06/12 07:56:35;;;;;;;9.30;8.33;;;22.60;1.00;;;;;;5041789;28;20416;-79
2021/06/12 07:59:02;;;;;;;9.43;8.63;;;22.50;1.00;;;;;;5053703;28;21353;-83
2021/06/12 08:01:28;;;;;;;8.90;8.00;;;22.50;1.00;;;;;;5047055;28;20450;-82
2021/06/12 08:03:54;;;;;;;9.40;8.50;;;22.50;1.00;;;;;;5041455;28;21287;-80
2021/06/12 08:06:22;;;;;;;8.40;7.70;;;22.50;1.00;;;;;;5035565;28;20562;-79
2021/06/12 08:08:48;;;;;;;8.57;7.80;;;22.60;1.00;;;;;;5043281;28;20533;-80
2021/06/12 08:11:14;;;;;;;9.57;8.60;;;22.70;1.00;;;;;;5048370;28;20521;-80
2021/06/12 08:13:40;;;;;;;9.80;8.77;;;22.80;1.00;;;;;;5043986;28;20443;-80
2021/06/12 08:16:07;;;;;;;10.20;9.27;;;22.90;1.00;;;;;;5045070;28;20465;-80
2021/06/12 08:18:36;;;;;;;10.77;9.77;;;22.90;1.00;;;;;;5046291;28;20454;-80
2021/06/12 08:21:02;;;;;;;10.73;9.80;;;22.90;1.00;;;;;;5049428;28;20446;-80
2021/06/12 08:23:30;;;;;;;10.40;9.33;;;22.80;1.00;;;;;;5045626;28;20524;-82
2021/06/12 08:25:57;;;;;;;9.83;8.87;;;22.70;1.00;;;;;;5041514;28;20467;-81
2021/06/12 08:28:23;;;;;;;10.63;9.63;;;22.60;1.00;;;;;;5041061;28;21042;-81
2021/06/12 08:30:50;;;;;;;11.40;10.40;;;22.60;1.00;;;;;;5042093;28;20812;-80
2021/06/12 08:33:16;;;;;;;10.43;9.43;;;22.60;1.00;;;;;;5049330;28;20491;-81
2021/06/12 08:35:42;;;;;;;10.83;9.80;;;22.60;1.00;;;;;;5062716;28;20492;-83
2021/06/12 08:38:09;;;;;;;12.20;11.17;;;22.70;1.00;;;;;;5042591;28;21054;-82
2021/06/12 08:40:37;;;;;;;11.80;10.70;;;22.70;1.00;;;;;;5037896;28;20468;-82
2021/06/12 08:43:05;;;;;;;11.40;10.20;;;22.90;1.00;;;;;;5041644;28;20456;-82
2021/06/12 08:45:32;;;;;;;10.23;9.33;;;23.00;1.00;;;;;;5040609;28;20483;-81
2021/06/12 08:47:59;;;;;;;10.20;9.07;;;23.20;1.00;;;;;;5041975;28;20471;-85
2021/06/12 08:50:26;;;;;;;12.27;11.00;;;23.40;1.00;;;;;;5050322;28;20443;-83
2021/06/12 08:52:54;;;;;;;12.03;10.73;;;23.50;1.00;;;;;;5059805;28;20447;-83
2021/06/12 08:55:21;;;;;;;9.57;8.73;;;23.40;1.00;;;;;;5054501;28;20456;-84
2021/06/12 08:57:48;;;;;;;10.73;9.67;;;23.30;1.00;;;;;;5045548;28;20469;-83
2021/06/12 09:00:16;;;;;;;11.63;10.43;;;23.20;1.00;;;;;;5053861;28;20478;-83
2021/06/12 09:03:14;;;;;;;11.50;9.77;;;23.10;1.00;;;;;;5068256;28;21325;-84
2021/06/12 09:05:44;;;;;;;9.93;9.10;;;23.10;1.00;;;;;;5018408;28;20459;-84
2021/06/12 09:08:13;;;;;;;8.90;8.10;;;23.30;1.00;;;;;;5052386;28;20463;-84
2021/06/12 09:10:48;;;;;;;9.20;8.40;;;23.50;1.00;;;;;;5045951;28;20417;-83
2021/06/12 09:13:16;;;;;;;10.57;9.57;;;23.70;1.00;;;;;;5048906;28;20542;-82
2021/06/12 09:15:51;;;;;;;9.53;8.70;;;23.60;1.00;;;;;;5050877;28;20434;-84
2021/06/12 09:18:36;;;;;;;9.60;8.60;;;23.30;1.00;;;;;;5048478;28;20449;-83
2021/06/12 09:21:03;;;;;;;9.93;8.97;;;23.00;1.00;;;;;;5067012;28;21324;-83
2021/06/12 09:23:38;;;;;;;9.70;8.90;;;22.70;1.00;;;;;;5053293;28;20449;-82
2021/06/12 09:26:06;;;;;;;8.90;8.10;;;22.40;1.00;;;;;;5049100;28;20440;-82
2021/06/12 09:28:45;;;;;;;8.87;8.07;;;22.30;1.00;;;;;;5050684;28;20523;-82
2021/06/12 09:31:18;;;;;;;11.70;10.70;;;22.10;1.00;;;;;;5051541;28;20453;-82
2021/06/12 09:33:45;;;;;;;10.00;9.10;;;22.10;1.00;;;;;;5053110;28;21340;-83
2021/06/12 09:36:12;;;;;;;10.90;10.00;;;21.90;1.00;;;;;;5063117;28;20486;-83
2021/06/12 09:38:38;;;;;;;13.80;12.40;;;21.60;1.00;;;;;;5058056;28;20455;-82
2021/06/12 09:41:23;;;;;;;12.30;11.10;;;21.30;1.00;;;;;;5051163;28;20464;-84
2021/06/12 09:43:51;;;;;;;12.70;11.33;;;21.00;1.00;;;;;;5057547;28;20417;-83
2021/06/12 09:46:34;;;;;;;14.30;12.97;;;20.70;1.00;;;;;;5055544;28;20482;-84
2021/06/12 09:49:01;;;;;;;15.60;14.00;;;20.30;1.00;;;;;;5046293;28;20432;-83
2021/06/12 09:51:27;;;;;;;18.13;14.13;;;19.90;1.00;;;;;;5053475;28;20515;-82
2021/06/12 09:53:55;;;;;;;16.80;14.87;;;19.60;1.00;;;;;;5058128;28;20531;-81
2021/06/12 09:56:23;;;;;;;20.80;18.77;;;19.50;1.00;;;;;;5057866;28;20486;-83
2021/06/12 09:58:51;;;;;;;20.87;18.87;;;19.40;1.00;;;;;;5057894;28;20452;-83
2021/06/12 10:01:20;;;;;;;21.00;18.83;;;19.30;1.00;;;;;;5060442;28;20494;-83
2021/06/12 10:03:47;;;;;;;21.83;19.83;;;19.40;1.00;;;;;;5054693;28;20534;-82
2021/06/12 10:06:16;;;;;;;23.23;20.97;;;19.50;1.00;;;;;;5051667;28;20442;-82
2021/06/12 10:08:46;;;;;;;20.83;18.70;;;19.40;1.00;;;;;;5047658;28;20863;-85
2021/06/12 10:11:13;;;;;;;23.80;21.30;;;19.40;1.00;;;;;;5054093;28;20488;-82
2021/06/12 10:13:43;;;;;;;21.27;19.20;;;19.40;1.00;;;;;;5046795;28;20452;-81
2021/06/12 10:16:11;;;;;;;22.90;20.60;;;19.40;1.00;;;;;;5049370;28;20421;-84
2021/06/12 10:18:39;;;;;;;20.87;18.90;;;19.40;1.00;;;;;;5046874;28;20550;-82
2021/06/12 10:21:06;;;;;;;22.93;20.80;;;19.40;1.00;;;;;;5048769;28;20472;-82
2021/06/12 10:23:32;;;;;;;21.87;19.70;;;19.40;1.00;;;;;;5054433;28;20460;-82
2021/06/12 10:25:59;;;;;;;21.40;19.30;;;19.40;1.00;;;;;;5050548;28;20468;-83
2021/06/12 10:28:25;;;;;;;22.07;19.80;;;19.50;1.00;;;;;;5057298;28;20844;-84
2021/06/12 10:30:51;;;;;;;21.30;19.37;;;19.50;1.00;;;;;;5050873;28;20556;-84
2021/06/12 10:33:19;;;;;;;20.60;18.70;;;19.50;1.00;;;;;;5053565;28;20452;-83
2021/06/12 10:35:46;;;;;;;21.03;18.97;;;19.60;1.00;;;;;;5052214;28;20465;-84
2021/06/12 10:38:15;;;;;;;19.77;17.87;;;19.70;1.00;;;;;;5049684;28;20967;-82
2021/06/12 10:40:44;;;;;;;19.80;17.90;;;19.90;1.00;;;;;;5052018;28;20435;-82
2021/06/12 10:43:13;;;;;;;18.90;16.30;;;20.20;1.00;;;;;;5049637;28;20483;-81
2021/06/12 10:45:41;;;;;;;16.57;15.07;;;20.70;1.00;;;;;;5048147;28;20483;-84
2021/06/12 10:48:08;;;;;;;14.90;13.67;;;21.50;1.00;;;;;;5048215;28;20395;-83
2021/06/12 10:50:43;;;;;;;15.27;14.07;;;22.40;1.00;;;;;;5045510;28;20566;-83
2021/06/12 10:53:21;;;;;;;14.83;13.43;;;23.00;1.00;;;;;;5050617;28;20465;-82
2021/06/12 10:55:49;;;;;;;12.93;11.73;;;23.30;1.00;;;;;;5047128;28;20438;-83
2021/06/12 10:58:41;;;;;;;12.20;11.10;;;23.40;1.00;;;;;;5049508;28;20427;-83
2021/06/12 11:01:13;;;;;;;11.20;10.40;;;23.20;1.00;;;;;;5046252;28;20830;-83
2021/06/12 11:03:52;;;;;;;11.73;10.63;;;23.20;1.00;;;;;;5048136;28;21182;-82
2021/06/12 11:06:33;;;;;;;10.30;9.40;;;23.20;1.00;;;;;;5054776;28;20559;-83
2021/06/12 11:09:38;;;;;;;11.43;10.43;;;23.20;1.00;;;;;;5051355;28;20471;-81
2021/06/12 11:12:30;;;;;;;10.13;9.40;;;23.30;1.00;;;;;;5052699;28;20445;-80
2021/06/12 11:15:00;;;;;;;10.13;9.33;;;23.40;1.00;;;;;;5054285;28;20505;-82
2021/06/12 11:17:26;;;;;;;11.70;9.07;;;23.40;1.00;;;;;;5052283;28;20455;-80
2021/06/12 11:20:27;;;;;;;9.20;8.40;;;23.50;1.00;;;;;;5054779;28;20416;-82
2021/06/12 11:23:01;;;;;;;8.40;7.80;;;23.70;1.00;;;;;;5057514;28;20450;-82
2021/06/12 11:25:39;;;;;;;9.20;8.50;;;23.80;1.00;;;;;;5060417;28;20432;-83
2021/06/12 11:28:21;;;;;;;10.70;7.70;;;23.70;1.00;;;;;;5063506;28;20539;-82
2021/06/12 11:30:48;;;;;;;8.63;7.83;;;23.70;1.00;;;;;;5056974;28;20396;-84
2021/06/12 11:33:14;;;;;;;7.80;7.07;;;23.60;1.00;;;;;;5055210;28;20471;-80
2021/06/12 11:35:50;;;;;;;7.07;6.47;;;23.50;1.00;;;;;;5058480;28;20403;-79
2021/06/12 11:38:20;;;;;;;8.00;7.23;;;23.40;1.00;;;;;;5057503;28;20924;-83
2021/06/12 11:40:53;;;;;;;7.60;7.00;;;23.30;1.00;;;;;;5053653;28;20512;-83
2021/06/12 11:43:35;;;;;;;7.70;7.20;;;23.20;1.00;;;;;;5068884;28;20451;-83
2021/06/12 11:46:04;;;;;;;7.17;6.57;;;23.40;1.00;;;;;;5051239;28;20436;-81
2021/06/12 11:48:30;;;;;;;6.93;6.23;;;23.80;1.00;;;;;;5053626;28;20476;-80
2021/06/12 11:50:58;;;;;;;7.33;6.63;;;24.20;1.00;;;;;;5053635;28;20406;-81
2021/06/12 11:53:34;;;;;;;7.27;6.57;;;24.40;1.00;;;;;;5050911;28;21341;-79
2021/06/12 11:56:01;;;;;;;7.20;6.50;;;24.50;1.00;;;;;;5052175;28;20450;-79
2021/06/12 11:58:27;;;;;;;7.30;6.60;;;24.80;1.00;;;;;;5045763;28;20503;-83
2021/06/12 12:00:53;;;;;;;7.23;6.63;;;24.70;1.00;;;;;;5042765;28;20440;-80
2021/06/12 12:03:20;;;;;;;7.17;6.57;;;24.50;1.00;;;;;;5040004;28;20424;-84
2021/06/12 12:05:50;;;;;;;7.60;6.97;;;24.20;1.00;;;;;;5055126;28;20459;-81
2021/06/12 12:08:19;;;;;;;7.57;6.87;;;23.90;1.00;;;;;;5047707;28;20510;-81
2021/06/12 12:10:50;;;;;;;6.83;6.27;;;23.60;1.00;;;;;;5048690;28;20457;-80
2021/06/12 12:13:34;;;;;;;6.60;6.00;;;23.40;1.00;;;;;;5047600;28;20517;-84
2021/06/12 12:16:00;;;;;;;6.30;5.80;;;23.10;1.00;;;;;;5058239;28;20447;-80
2021/06/12 12:18:26;;;;;;;6.00;5.50;;;22.80;1.00;;;;;;5055416;28;20456;-82
2021/06/12 12:20:57;;;;;;;6.43;5.90;;;22.80;1.00;;;;;;5044170;28;20439;-79
2021/06/12 12:23:25;;;;;;;8.10;7.30;;;22.80;1.00;;;;;;5041731;28;20415;-81
2021/06/12 12:26:06;;;;;;;6.90;6.10;;;22.60;1.00;;;;;;5041207;28;20506;-82
2021/06/12 12:28:32;;;;;;;5.93;4.70;;;22.30;1.00;;;;;;5042821;28;20449;-82
2021/06/12 12:31:07;;;;;;;6.47;5.87;;;21.60;1.00;;;;;;5037995;28;20551;-79
2021/06/12 12:33:44;;;;;;;6.20;5.67;;;21.10;1.00;;;;;;5041466;28;20444;-82
2021/06/12 12:36:10;;;;;;;5.77;5.30;;;20.70;1.00;;;;;;5036107;28;20713;-83
2021/06/12 12:38:37;;;;;;;4.73;4.13;;;20.50;1.00;;;;;;5035375;28;20430;-82
2021/06/12 12:41:06;;;;;;;6.00;5.20;;;20.30;1.00;;;;;;5037162;28;20494;-85
2021/06/12 12:43:32;;;;;;;6.40;5.80;;;20.00;1.00;;;;;;5033628;28;20469;-81
2021/06/12 12:45:59;;;;;;;5.73;5.23;;;19.80;1.00;;;;;;5036904;28;20952;-81
2021/06/12 12:48:26;;;;;;;6.83;6.13;;;19.60;1.00;;;;;;5031315;28;20518;-81
2021/06/12 12:50:52;;;;;;;5.90;5.40;;;19.50;1.00;;;;;;5035136;28;20418;-81
2021/06/12 12:53:20;;;;;;;7.00;6.20;;;19.40;1.00;;;;;;5035500;28;20444;-80
2021/06/12 12:55:56;;;;;;;7.00;5.43;;;19.50;1.00;;;;;;5034110;28;20440;-80
2021/06/12 12:58:25;;;;;;;7.63;6.10;;;19.60;1.00;;;;;;5033725;28;20459;-81